createdAt,value
2022-08-19T00:04:37.480Z,39.72
2022-08-19T00:09:39.383Z,40.08
2022-08-19T00:14:41.864Z,39.83
2022-08-19T00:19:43.588Z,39.58
2022-08-19T00:24:50.882Z,39.42
2022-08-19T00:29:52.986Z,39.97
2022-08-19T00:34:54.716Z,38.08
2022-08-19T00:39:56.946Z,39.83
2022-08-19T00:44:58.821Z,36.72
2022-08-19T00:50:00.753Z,38.58
2022-08-19T00:55:03.486Z,39.20
2022-08-19T01:00:12.288Z,38.15
2022-08-19T01:05:21.789Z,38.35
2022-08-19T01:10:27.713Z,37.83
2022-08-19T01:15:36.333Z,37.65
2022-08-19T01:20:38.304Z,36.92
2022-08-19T01:25:53.159Z,35.92
2022-08-19T01:30:56.694Z,31.77
2022-08-19T01:36:29.878Z,30.30
2022-08-19T01:41:31.666Z,32.58
2022-08-19T01:46:34.061Z,31.10
2022-08-19T01:51:39.889Z,32.65
2022-08-19T01:56:42.016Z,26.42
2022-08-19T02:01:44.163Z,29.00
2022-08-19T02:06:45.835Z,30.98
2022-08-19T02:11:47.508Z,31.55
2022-08-19T02:16:49.166Z,28.42
2022-08-19T02:21:50.826Z,28.80
2022-08-19T02:26:52.674Z,28.60
2022-08-19T02:31:54.561Z,29.95
2022-08-19T02:36:57.328Z,27.52
2022-08-19T02:42:00.575Z,31.33
2022-08-19T02:47:02.199Z,29.73
2022-08-19T02:52:04.272Z,31.92
2022-08-19T02:57:07.174Z,27.23
2022-08-19T03:02:08.795Z,28.33
2022-08-19T03:07:14.587Z,30.50
2022-08-19T03:12:16.275Z,34.22
2022-08-19T03:17:17.954Z,36.13
2022-08-19T03:22:19.624Z,38.63
2022-08-19T03:27:22.501Z,34.65
2022-08-19T03:32:32.449Z,32.30
2022-08-19T03:37:34.871Z,33.45
2022-08-19T03:42:48.850Z,38.72
2022-08-19T03:47:51.381Z,43.88
2022-08-19T03:52:53.676Z,43.33
2022-08-19T03:57:59.083Z,43.30
2022-08-19T04:03:02.004Z,43.50
2022-08-19T04:08:09.604Z,44.85
2022-08-19T04:13:14.833Z,44.17
2022-08-19T04:18:16.740Z,46.50
2022-08-19T04:23:19.829Z,45.65
2022-08-19T04:28:24.063Z,47.17
2022-08-19T04:33:28.586Z,48.38
2022-08-19T04:38:30.623Z,44.80
2022-08-19T04:43:33.479Z,43.55
2022-08-19T04:48:36.313Z,39.10
2022-08-19T04:53:45.313Z,46.13
2022-08-19T04:58:48.035Z,45.22
2022-08-19T05:03:50.683Z,39.17
2022-08-19T05:08:52.957Z,38.63
2022-08-19T05:13:56.064Z,34.08
2022-08-19T05:19:16.375Z,34.22
2022-08-19T05:24:20.980Z,33.67
2022-08-19T05:29:23.206Z,29.65
2022-08-19T05:34:27.081Z,28.23
2022-08-19T05:39:31.033Z,33.08
2022-08-19T05:44:34.544Z,35.70
2022-08-19T05:49:37.526Z,36.50
2022-08-19T05:54:42.491Z,37.70
2022-08-19T05:59:46.886Z,39.30
2022-08-19T06:04:48.756Z,34.40
2022-08-19T06:10:00.019Z,38.35
2022-08-19T06:15:12.765Z,38.10
2022-08-19T06:20:16.278Z,39.30
2022-08-19T06:25:18.562Z,39.92
2022-08-19T06:30:21.415Z,42.90
2022-08-19T06:35:23.375Z,42.30
2022-08-19T06:40:25.328Z,42.47
2022-08-19T06:45:35.524Z,43.17
2022-08-19T06:50:39.466Z,44.70
2022-08-19T06:55:42.852Z,38.65
2022-08-19T07:00:44.786Z,41.63
2022-08-19T07:05:47.247Z,42.40
2022-08-19T07:10:50.144Z,38.60
2022-08-19T07:15:52.010Z,35.70
2022-08-19T07:21:06.909Z,31.92
2022-08-19T07:26:15.843Z,27.90
2022-08-19T07:31:23.791Z,25.70
2022-08-19T07:36:32.193Z,29.67
2022-08-19T07:41:35.486Z,30.27
2022-08-19T07:46:41.103Z,30.00
2022-08-19T07:51:42.924Z,33.22
2022-08-19T07:56:44.741Z,30.92
2022-08-19T08:01:46.763Z,31.83
2022-08-19T08:07:07.217Z,35.63
2022-08-19T08:17:49.781Z,34.72
2022-08-19T08:23:11.873Z,39.63
2022-08-19T08:28:17.661Z,36.92
2022-08-19T08:33:34.389Z,41.72
2022-08-19T08:38:41.812Z,42.85
2022-08-19T08:43:47.434Z,42.70
2022-08-19T08:48:55.056Z,41.42
2022-08-19T08:53:57.279Z,40.95
2022-08-19T08:59:09.457Z,42.92
2022-08-19T09:04:14.326Z,48.28
2022-08-19T09:09:33.628Z,42.60
2022-08-19T09:14:51.585Z,50.20
2022-08-19T09:20:09.105Z,47.15
2022-08-19T09:25:15.050Z,45.22
2022-08-19T09:30:28.755Z,46.40
2022-08-19T09:35:49.763Z,42.17
2022-08-19T09:40:55.622Z,41.10
2022-08-19T09:45:58.111Z,37.65
2022-08-19T09:51:09.101Z,36.45
2022-08-19T09:56:14.499Z,41.78
2022-08-19T10:01:22.248Z,44.22
2022-08-19T10:06:41.978Z,46.03
2022-08-19T10:11:54.625Z,46.50
2022-08-19T10:16:59.239Z,44.70
2022-08-19T10:22:04.406Z,52.83
2022-08-19T10:27:06.975Z,50.80
2022-08-19T10:32:11.109Z,49.67
2022-08-19T10:37:14.350Z,44.35
2022-08-19T10:42:19.565Z,42.17
2022-08-19T10:47:24.949Z,42.17
2022-08-19T10:52:38.758Z,42.90
2022-08-19T10:58:01.241Z,44.35
2022-08-19T11:03:04.094Z,53.05
2022-08-19T11:08:22.506Z,54.33
2022-08-19T11:13:25.713Z,49.33
2022-08-19T11:18:27.557Z,46.33
2022-08-19T11:23:29.357Z,46.20
2022-08-19T11:28:31.295Z,42.90
2022-08-19T11:33:33.817Z,38.45
2022-08-19T11:38:37.041Z,41.90
2022-08-19T11:43:40.650Z,43.60
2022-08-19T11:48:43.608Z,45.95
2022-08-19T11:53:46.839Z,43.58
2022-08-19T11:58:49.545Z,47.15
2022-08-19T12:03:53.371Z,48.45
2022-08-19T12:08:57.467Z,46.88
2022-08-19T12:14:00.023Z,50.72
2022-08-19T12:19:05.256Z,55.45
2022-08-19T12:24:10.157Z,47.15
2022-08-19T12:29:12.014Z,47.53
2022-08-19T12:34:13.907Z,49.70
2022-08-19T12:39:15.728Z,56.22
2022-08-19T12:44:17.957Z,48.13
2022-08-19T12:49:31.436Z,56.40
2022-08-19T12:54:47.276Z,54.10
2022-08-19T12:59:54.629Z,51.22
2022-08-19T13:04:56.609Z,52.40
2022-08-19T13:09:58.537Z,57.50
2022-08-19T13:15:00.828Z,56.35
2022-08-19T13:20:03.616Z,54.58
2022-08-19T13:25:07.487Z,58.75
2022-08-19T13:30:30.358Z,51.38
2022-08-19T13:35:32.231Z,54.63
2022-08-19T13:40:34.672Z,53.15
2022-08-19T13:45:38.743Z,52.95
2022-08-19T13:50:47.777Z,48.50
2022-08-19T13:55:51.492Z,47.83
2022-08-19T14:00:53.572Z,50.70
2022-08-19T14:05:55.559Z,48.42
2022-08-19T14:10:57.426Z,49.55
2022-08-19T14:15:59.272Z,43.45
2022-08-19T14:21:01.732Z,42.97
2022-08-19T14:26:13.424Z,45.22
2022-08-19T14:31:19.959Z,46.95
2022-08-19T14:36:22.797Z,46.58
2022-08-19T14:41:24.869Z,43.05
2022-08-19T14:46:29.524Z,45.28
2022-08-19T14:51:32.493Z,45.22
2022-08-19T14:56:34.336Z,39.80
2022-08-19T15:01:36.278Z,42.20
2022-08-19T15:06:38.642Z,43.42
2022-08-19T15:11:40.445Z,43.67
2022-08-19T15:16:42.933Z,38.75
2022-08-19T15:21:44.880Z,37.65
2022-08-19T15:26:46.748Z,36.35
2022-08-19T15:31:48.625Z,38.10
2022-08-19T15:36:52.258Z,36.20
2022-08-19T15:41:54.110Z,36.15
2022-08-19T15:46:58.569Z,36.03
2022-08-19T15:52:02.014Z,36.65
2022-08-19T15:57:22.221Z,37.92
2022-08-19T16:02:46.249Z,38.40
2022-08-19T16:07:49.034Z,34.63
2022-08-19T16:12:51.073Z,40.75
2022-08-19T16:17:57.220Z,39.97
2022-08-19T16:23:00.077Z,39.63
2022-08-19T16:28:07.680Z,33.50
2022-08-19T16:33:10.315Z,31.27
2022-08-19T16:38:14.612Z,30.65
2022-08-19T16:43:16.445Z,32.83
2022-08-19T16:48:22.569Z,32.03
2022-08-19T16:53:29.093Z,31.02
2022-08-19T16:58:34.289Z,31.33
2022-08-19T17:03:37.681Z,28.83
2022-08-19T17:08:39.828Z,25.65
2022-08-19T17:13:41.749Z,30.40
2022-08-19T17:18:45.651Z,32.15
2022-08-19T17:23:47.531Z,31.33
2022-08-19T17:28:51.923Z,28.88
2022-08-19T17:33:55.005Z,26.60
2022-08-19T17:39:00.436Z,28.75
2022-08-19T17:44:03.850Z,26.02
2022-08-19T17:49:06.744Z,24.42
2022-08-19T17:54:12.046Z,23.00
2022-08-19T17:59:15.035Z,20.83
2022-08-19T18:04:18.789Z,19.50
2022-08-19T18:09:30.068Z,16.70
2022-08-19T18:14:44.216Z,18.40
2022-08-19T18:19:47.786Z,18.88
2022-08-19T18:24:49.930Z,17.95
2022-08-19T18:29:51.811Z,14.63
2022-08-19T18:34:54.621Z,15.07
2022-08-19T18:40:16.092Z,14.82
2022-08-19T18:45:36.635Z,13.88
2022-08-19T18:50:42.893Z,17.60
2022-08-19T18:55:47.522Z,14.20
2022-08-19T19:00:49.725Z,13.40
2022-08-19T19:05:52.844Z,13.88
2022-08-19T19:10:56.584Z,14.45
2022-08-19T19:16:01.218Z,13.65
2022-08-19T19:21:03.150Z,14.55
2022-08-19T19:26:05.118Z,13.57
2022-08-19T19:31:06.993Z,13.98
2022-08-19T19:36:08.954Z,13.77
2022-08-19T19:41:11.627Z,13.90
2022-08-19T19:46:16.507Z,13.90
2022-08-19T19:51:19.936Z,13.27
2022-08-19T19:56:22.810Z,14.35
2022-08-19T20:01:27.186Z,15.32
2022-08-19T20:06:29.551Z,15.00
2022-08-19T20:11:33.355Z,16.02
2022-08-19T20:16:35.314Z,16.05
2022-08-19T20:21:43.889Z,13.68
2022-08-19T20:26:47.526Z,16.33
2022-08-19T20:31:57.809Z,16.63
2022-08-19T20:37:01.429Z,15.02
2022-08-19T20:42:03.497Z,17.90
2022-08-19T20:47:05.624Z,19.60
2022-08-19T20:52:07.618Z,19.58
2022-08-19T20:57:09.535Z,19.00
2022-08-19T21:02:11.583Z,17.52
2022-08-19T21:07:13.527Z,16.63
2022-08-19T21:12:15.859Z,17.63
2022-08-19T21:17:18.456Z,18.15
2022-08-19T21:22:20.380Z,18.25
2022-08-19T21:27:22.246Z,16.45
2022-08-19T21:32:27.111Z,17.17
2022-08-19T21:37:29.576Z,17.67
2022-08-19T21:42:31.423Z,16.45
2022-08-19T21:47:33.298Z,15.63
2022-08-19T21:52:35.145Z,13.52
2022-08-19T21:57:37.040Z,14.73
2022-08-19T22:02:38.907Z,16.85
2022-08-19T22:07:42.882Z,16.35
2022-08-19T22:12:47.320Z,18.88
2022-08-19T22:17:54.465Z,18.60
2022-08-19T22:23:00.847Z,14.80
2022-08-19T22:28:05.242Z,17.60
2022-08-19T22:33:11.698Z,18.70
2022-08-19T22:38:14.488Z,17.88
2022-08-19T22:43:23.021Z,17.65
2022-08-19T22:48:27.990Z,19.52
2022-08-19T22:53:29.853Z,19.92
2022-08-19T22:58:31.990Z,20.30
2022-08-19T23:03:35.174Z,19.92
2022-08-19T23:08:39.840Z,20.42
2022-08-19T23:13:42.313Z,18.88
2022-08-19T23:18:45.456Z,18.17
2022-08-19T23:23:47.884Z,17.77
2022-08-19T23:29:08.131Z,16.10
2022-08-19T23:34:10.052Z,17.10
2022-08-19T23:39:11.896Z,17.35
2022-08-19T23:44:14.866Z,17.75
2022-08-19T23:49:17.262Z,17.65
2022-08-19T23:54:19.106Z,16.77
2022-08-19T23:59:21.258Z,17.05
